sensor_id;sensor_type;location;lat;lon;timestamp;temperature;humidity
40756;DHT22;26461;45.630;9.418;2023-03-04T00:01:44;10.40;99.90
40756;DHT22;26461;45.630;9.418;2023-03-04T00:04:54;10.40;99.90
40756;DHT22;26461;45.630;9.418;2023-03-04T00:08:04;10.50;99.90
40756;DHT22;26461;45.630;9.418;2023-03-04T00:11:14;10.40;99.90
40756;DHT22;26461;45.630;9.418;2023-03-04T00:14:24;10.30;99.90
40756;DHT22;26461;45.630;9.418;2023-03-04T00:17:33;10.30;99.90
40756;DHT22;26461;45.630;9.418;2023-03-04T00:20:43;10.10;99.90
40756;DHT22;26461;45.630;9.418;2023-03-04T00:23:53;10.10;99.90
40756;DHT22;26461;45.630;9.418;2023-03-04T00:27:03;10.00;99.90
40756;DHT22;26461;45.630;9.418;2023-03-04T00:30:13;10.00;99.90
40756;DHT22;26461;45.630;9.418;2023-03-04T00:33:23;10.00;99.90
40756;DHT22;26461;45.630;9.418;2023-03-04T00:36:33;10.00;99.90
40756;DHT22;26461;45.630;9.418;2023-03-04T00:39:43;10.00;99.90
40756;DHT22;26461;45.630;9.418;2023-03-04T00:42:53;10.10;99.90
40756;DHT22;26461;45.630;9.418;2023-03-04T00:46:03;10.00;99.90
40756;DHT22;26461;45.630;9.418;2023-03-04T00:49:13;10.00;99.90
40756;DHT22;26461;45.630;9.418;2023-03-04T00:52:23;10.00;99.90
40756;DHT22;26461;45.630;9.418;2023-03-04T00:55:33;10.10;99.90
40756;DHT22;26461;45.630;9.418;2023-03-04T00:58:42;10.00;99.90
40756;DHT22;26461;45.630;9.418;2023-03-04T01:01:52;9.90;99.90
40756;DHT22;26461;45.630;9.418;2023-03-04T01:05:03;10.00;99.90
40756;DHT22;26461;45.630;9.418;2023-03-04T01:08:13;10.00;99.90
40756;DHT22;26461;45.630;9.418;2023-03-04T01:11:23;10.00;99.90
40756;DHT22;26461;45.630;9.418;2023-03-04T01:14:32;10.00;99.90
40756;DHT22;26461;45.630;9.418;2023-03-04T01:17:42;10.00;99.90
40756;DHT22;26461;45.630;9.418;2023-03-04T01:20:52;9.90;99.90
40756;DHT22;26461;45.630;9.418;2023-03-04T01:24:02;9.90;99.90
40756;DHT22;26461;45.630;9.418;2023-03-04T01:27:13;9.90;99.90
40756;DHT22;26461;45.630;9.418;2023-03-04T01:30:23;9.90;99.90
40756;DHT22;26461;45.630;9.418;2023-03-04T01:33:33;9.90;99.90
40756;DHT22;26461;45.630;9.418;2023-03-04T01:36:43;9.90;99.90
40756;DHT22;26461;45.630;9.418;2023-03-04T01:39:55;9.90;99.90
40756;DHT22;26461;45.630;9.418;2023-03-04T01:43:06;9.90;99.90
40756;DHT22;26461;45.630;9.418;2023-03-04T01:46:16;9.90;99.90
40756;DHT22;26461;45.630;9.418;2023-03-04T01:49:22;9.90;99.90
40756;DHT22;26461;45.630;9.418;2023-03-04T01:52:33;9.90;99.90
40756;DHT22;26461;45.630;9.418;2023-03-04T01:55:43;9.90;99.90
40756;DHT22;26461;45.630;9.418;2023-03-04T01:59:16;9.90;99.90
40756;DHT22;26461;45.630;9.418;2023-03-04T02:02:26;9.90;99.90
40756;DHT22;26461;45.630;9.418;2023-03-04T02:05:38;9.90;99.90
40756;DHT22;26461;45.630;9.418;2023-03-04T02:08:50;10.00;99.90
40756;DHT22;26461;45.630;9.418;2023-03-04T02:12:01;9.90;99.90
40756;DHT22;26461;45.630;9.418;2023-03-04T02:15:12;9.90;99.90
40756;DHT22;26461;45.630;9.418;2023-03-04T02:18:23;9.90;99.90
40756;DHT22;26461;45.630;9.418;2023-03-04T02:21:34;10.00;99.90
40756;DHT22;26461;45.630;9.418;2023-03-04T02:24:56;9.90;99.90
40756;DHT22;26461;45.630;9.418;2023-03-04T02:28:09;9.90;99.90
40756;DHT22;26461;45.630;9.418;2023-03-04T02:31:33;9.90;99.90
40756;DHT22;26461;45.630;9.418;2023-03-04T02:34:49;9.90;99.90
40756;DHT22;26461;45.630;9.418;2023-03-04T02:37:59;9.90;99.90
40756;DHT22;26461;45.630;9.418;2023-03-04T02:41:14;9.90;99.90
40756;DHT22;26461;45.630;9.418;2023-03-04T02:44:23;9.90;99.90
40756;DHT22;26461;45.630;9.418;2023-03-04T02:47:34;9.70;99.90
40756;DHT22;26461;45.630;9.418;2023-03-04T02:50:53;9.70;99.90
40756;DHT22;26461;45.630;9.418;2023-03-04T02:53:58;9.70;99.90
40756;DHT22;26461;45.630;9.418;2023-03-04T02:57:10;9.50;99.90
40756;DHT22;26461;45.630;9.418;2023-03-04T03:00:24;9.50;99.90
40756;DHT22;26461;45.630;9.418;2023-03-04T03:03:34;9.40;99.90
40756;DHT22;26461;45.630;9.418;2023-03-04T03:06:44;9.20;99.90
40756;DHT22;26461;45.630;9.418;2023-03-04T03:09:54;9.20;99.90
40756;DHT22;26461;45.630;9.418;2023-03-04T03:13:04;9.10;99.90
40756;DHT22;26461;45.630;9.418;2023-03-04T03:16:14;9.00;99.90
40756;DHT22;26461;45.630;9.418;2023-03-04T03:19:24;9.00;99.90
40756;DHT22;26461;45.630;9.418;2023-03-04T03:22:34;9.00;99.90
40756;DHT22;26461;45.630;9.418;2023-03-04T03:25:44;8.80;99.90
40756;DHT22;26461;45.630;9.418;2023-03-04T03:28:54;8.90;99.90
40756;DHT22;26461;45.630;9.418;2023-03-04T03:32:05;8.80;99.90
40756;DHT22;26461;45.630;9.418;2023-03-04T03:35:15;8.80;99.90
40756;DHT22;26461;45.630;9.418;2023-03-04T03:38:25;8.80;99.90
40756;DHT22;26461;45.630;9.418;2023-03-04T03:41:35;8.70;99.90
40756;DHT22;26461;45.630;9.418;2023-03-04T03:44:45;8.70;99.90
40756;DHT22;26461;45.630;9.418;2023-03-04T03:47:55;8.60;99.90
40756;DHT22;26461;45.630;9.418;2023-03-04T03:51:05;8.60;99.90
40756;DHT22;26461;45.630;9.418;2023-03-04T03:54:15;8.60;99.90
40756;DHT22;26461;45.630;9.418;2023-03-04T03:57:25;8.60;99.90
40756;DHT22;26461;45.630;9.418;2023-03-04T04:00:34;8.60;99.90
40756;DHT22;26461;45.630;9.418;2023-03-04T04:03:44;8.60;99.90
40756;DHT22;26461;45.630;9.418;2023-03-04T04:06:49;8.60;99.90
40756;DHT22;26461;45.630;9.418;2023-03-04T04:09:59;8.50;99.90
40756;DHT22;26461;45.630;9.418;2023-03-04T04:13:10;8.50;99.90
40756;DHT22;26461;45.630;9.418;2023-03-04T04:16:15;8.40;99.90
40756;DHT22;26461;45.630;9.418;2023-03-04T04:19:25;8.30;99.90
40756;DHT22;26461;45.630;9.418;2023-03-04T04:22:34;8.30;99.90
40756;DHT22;26461;45.630;9.418;2023-03-04T04:25:45;8.30;99.90
40756;DHT22;26461;45.630;9.418;2023-03-04T04:28:55;8.10;99.90
40756;DHT22;26461;45.630;9.418;2023-03-04T04:32:06;8.20;99.90
40756;DHT22;26461;45.630;9.418;2023-03-04T04:35:17;8.10;99.90
40756;DHT22;26461;45.630;9.418;2023-03-04T04:38:27;8.10;99.90
40756;DHT22;26461;45.630;9.418;2023-03-04T04:41:40;8.00;99.90
40756;DHT22;26461;45.630;9.418;2023-03-04T04:44:50;8.00;99.90
40756;DHT22;26461;45.630;9.418;2023-03-04T04:48:01;8.00;99.90
40756;DHT22;26461;45.630;9.418;2023-03-04T04:51:11;8.00;99.90
40756;DHT22;26461;45.630;9.418;2023-03-04T04:54:21;8.00;99.90
40756;DHT22;26461;45.630;9.418;2023-03-04T04:57:30;8.00;99.90
40756;DHT22;26461;45.630;9.418;2023-03-04T05:00:41;8.00;99.90
40756;DHT22;26461;45.630;9.418;2023-03-04T05:03:51;8.00;99.90
40756;DHT22;26461;45.630;9.418;2023-03-04T05:07:04;8.00;99.90
40756;DHT22;26461;45.630;9.418;2023-03-04T05:10:14;8.00;99.90
40756;DHT22;26461;45.630;9.418;2023-03-04T05:13:24;8.10;99.90
40756;DHT22;26461;45.630;9.418;2023-03-04T05:16:34;8.10;99.90
40756;DHT22;26461;45.630;9.418;2023-03-04T05:19:44;8.10;99.90
40756;DHT22;26461;45.630;9.418;2023-03-04T05:22:54;8.10;99.90
40756;DHT22;26461;45.630;9.418;2023-03-04T05:26:05;8.10;99.90
40756;DHT22;26461;45.630;9.418;2023-03-04T05:29:15;8.10;99.90
40756;DHT22;26461;45.630;9.418;2023-03-04T05:32:26;8.50;99.90
40756;DHT22;26461;45.630;9.418;2023-03-04T05:35:38;8.10;99.90
40756;DHT22;26461;45.630;9.418;2023-03-04T05:38:48;8.10;99.90
40756;DHT22;26461;45.630;9.418;2023-03-04T05:41:58;8.10;99.90
40756;DHT22;26461;45.630;9.418;2023-03-04T05:45:08;8.10;99.90
40756;DHT22;26461;45.630;9.418;2023-03-04T05:48:17;8.20;99.90
40756;DHT22;26461;45.630;9.418;2023-03-04T05:51:27;8.20;99.90
40756;DHT22;26461;45.630;9.418;2023-03-04T05:54:37;8.20;99.90
40756;DHT22;26461;45.630;9.418;2023-03-04T05:57:47;8.20;99.90
40756;DHT22;26461;45.630;9.418;2023-03-04T06:00:59;8.20;99.90
40756;DHT22;26461;45.630;9.418;2023-03-04T06:04:09;8.10;99.90
40756;DHT22;26461;45.630;9.418;2023-03-04T06:07:19;8.10;99.90
40756;DHT22;26461;45.630;9.418;2023-03-04T06:10:29;8.00;99.90
40756;DHT22;26461;45.630;9.418;2023-03-04T06:13:39;8.10;99.90
40756;DHT22;26461;45.630;9.418;2023-03-04T06:16:44;8.10;99.90
40756;DHT22;26461;45.630;9.418;2023-03-04T06:19:54;8.10;99.90
40756;DHT22;26461;45.630;9.418;2023-03-04T06:22:59;8.00;99.90
40756;DHT22;26461;45.630;9.418;2023-03-04T06:26:09;8.00;99.90
40756;DHT22;26461;45.630;9.418;2023-03-04T06:29:23;7.90;99.90
40756;DHT22;26461;45.630;9.418;2023-03-04T06:32:33;8.00;99.90
40756;DHT22;26461;45.630;9.418;2023-03-04T06:35:42;8.00;99.90
40756;DHT22;26461;45.630;9.418;2023-03-04T06:38:52;8.10;99.90
40756;DHT22;26461;45.630;9.418;2023-03-04T06:42:03;8.10;99.90
40756;DHT22;26461;45.630;9.418;2023-03-04T06:45:12;8.10;99.90
40756;DHT22;26461;45.630;9.418;2023-03-04T06:48:22;8.20;99.90
40756;DHT22;26461;45.630;9.418;2023-03-04T06:51:32;8.20;99.90
40756;DHT22;26461;45.630;9.418;2023-03-04T06:54:42;8.30;99.90
40756;DHT22;26461;45.630;9.418;2023-03-04T06:57:52;8.40;99.90
40756;DHT22;26461;45.630;9.418;2023-03-04T07:04:21;8.30;99.90
40756;DHT22;26461;45.630;9.418;2023-03-04T07:07:34;8.30;99.90
40756;DHT22;26461;45.630;9.418;2023-03-04T07:10:44;8.40;99.90
40756;DHT22;26461;45.630;9.418;2023-03-04T07:13:54;8.40;99.90
40756;DHT22;26461;45.630;9.418;2023-03-04T07:17:03;8.60;99.90
40756;DHT22;26461;45.630;9.418;2023-03-04T07:20:13;8.60;99.90
40756;DHT22;26461;45.630;9.418;2023-03-04T07:23:23;8.70;99.90
40756;DHT22;26461;45.630;9.418;2023-03-04T07:26:33;8.70;99.90
40756;DHT22;26461;45.630;9.418;2023-03-04T07:29:43;8.80;99.90
40756;DHT22;26461;45.630;9.418;2023-03-04T07:32:52;8.90;99.90
40756;DHT22;26461;45.630;9.418;2023-03-04T07:36:05;8.90;99.90
40756;DHT22;26461;45.630;9.418;2023-03-04T07:39:15;9.00;99.90
40756;DHT22;26461;45.630;9.418;2023-03-04T07:42:25;9.00;99.90
40756;DHT22;26461;45.630;9.418;2023-03-04T07:45:41;9.10;99.90
40756;DHT22;26461;45.630;9.418;2023-03-04T07:48:51;9.20;99.90
40756;DHT22;26461;45.630;9.418;2023-03-04T07:52:03;9.40;99.90
40756;DHT22;26461;45.630;9.418;2023-03-04T07:55:15;9.50;99.90
40756;DHT22;26461;45.630;9.418;2023-03-04T07:58:24;9.50;99.90
40756;DHT22;26461;45.630;9.418;2023-03-04T08:01:36;9.60;99.90
40756;DHT22;26461;45.630;9.418;2023-03-04T08:04:45;9.70;99.90
40756;DHT22;26461;45.630;9.418;2023-03-04T08:07:55;9.70;99.90
40756;DHT22;26461;45.630;9.418;2023-03-04T08:11:08;9.80;99.90
40756;DHT22;26461;45.630;9.418;2023-03-04T08:14:19;9.90;99.90
40756;DHT22;26461;45.630;9.418;2023-03-04T08:17:28;9.90;99.90
40756;DHT22;26461;45.630;9.418;2023-03-04T08:20:41;9.90;99.90
40756;DHT22;26461;45.630;9.418;2023-03-04T08:23:52;10.00;99.90
40756;DHT22;26461;45.630;9.418;2023-03-04T08:27:04;10.00;99.90
40756;DHT22;26461;45.630;9.418;2023-03-04T08:30:09;10.10;99.90
40756;DHT22;26461;45.630;9.418;2023-03-04T08:33:19;10.10;99.90
40756;DHT22;26461;45.630;9.418;2023-03-04T08:36:30;10.20;99.90
40756;DHT22;26461;45.630;9.418;2023-03-04T08:39:36;10.20;99.90
40756;DHT22;26461;45.630;9.418;2023-03-04T08:42:46;10.30;99.90
40756;DHT22;26461;45.630;9.418;2023-03-04T08:45:55;10.30;99.90
40756;DHT22;26461;45.630;9.418;2023-03-04T08:49:05;10.30;99.90
40756;DHT22;26461;45.630;9.418;2023-03-04T08:52:15;10.40;99.90
40756;DHT22;26461;45.630;9.418;2023-03-04T08:55:25;10.40;99.90
40756;DHT22;26461;45.630;9.418;2023-03-04T08:58:36;10.40;99.90
40756;DHT22;26461;45.630;9.418;2023-03-04T09:01:46;10.40;99.90
40756;DHT22;26461;45.630;9.418;2023-03-04T09:04:55;10.50;99.90
40756;DHT22;26461;45.630;9.418;2023-03-04T09:08:06;10.40;99.90
40756;DHT22;26461;45.630;9.418;2023-03-04T09:11:16;10.40;99.90
40756;DHT22;26461;45.630;9.418;2023-03-04T09:14:26;10.50;99.90
40756;DHT22;26461;45.630;9.418;2023-03-04T09:17:36;10.60;99.90
40756;DHT22;26461;45.630;9.418;2023-03-04T09:20:46;10.60;99.90
40756;DHT22;26461;45.630;9.418;2023-03-04T09:23:56;10.60;99.90
40756;DHT22;26461;45.630;9.418;2023-03-04T09:27:08;10.70;99.90
40756;DHT22;26461;45.630;9.418;2023-03-04T09:30:18;10.70;99.90
40756;DHT22;26461;45.630;9.418;2023-03-04T09:33:27;10.80;99.90
40756;DHT22;26461;45.630;9.418;2023-03-04T09:36:40;10.70;99.90
40756;DHT22;26461;45.630;9.418;2023-03-04T09:39:50;10.80;99.90
40756;DHT22;26461;45.630;9.418;2023-03-04T09:43:02;10.90;99.90
40756;DHT22;26461;45.630;9.418;2023-03-04T09:46:25;10.90;99.90
40756;DHT22;26461;45.630;9.418;2023-03-04T09:49:40;10.90;99.90
40756;DHT22;26461;45.630;9.418;2023-03-04T09:56:18;11.00;99.90
40756;DHT22;26461;45.630;9.418;2023-03-04T09:59:35;11.10;99.90
40756;DHT22;26461;45.630;9.418;2023-03-04T10:06:22;11.10;99.90
40756;DHT22;26461;45.630;9.418;2023-03-04T10:09:46;11.20;99.90
40756;DHT22;26461;45.630;9.418;2023-03-04T10:12:58;11.30;99.90
40756;DHT22;26461;45.630;9.418;2023-03-04T10:16:08;11.30;99.90
40756;DHT22;26461;45.630;9.418;2023-03-04T10:20:14;11.30;99.90
40756;DHT22;26461;45.630;9.418;2023-03-04T10:23:09;11.40;99.90
40756;DHT22;26461;45.630;9.418;2023-03-04T10:26:28;11.40;99.90
40756;DHT22;26461;45.630;9.418;2023-03-04T10:29:38;11.40;99.90
40756;DHT22;26461;45.630;9.418;2023-03-04T10:32:48;11.50;99.90
40756;DHT22;26461;45.630;9.418;2023-03-04T10:36:03;11.50;99.90
40756;DHT22;26461;45.630;9.418;2023-03-04T10:39:25;11.60;99.90
40756;DHT22;26461;45.630;9.418;2023-03-04T10:42:36;11.70;99.90
40756;DHT22;26461;45.630;9.418;2023-03-04T10:45:47;11.70;99.90
40756;DHT22;26461;45.630;9.418;2023-03-04T10:49:02;11.80;99.90
40756;DHT22;26461;45.630;9.418;2023-03-04T10:55:44;11.90;99.90
40756;DHT22;26461;45.630;9.418;2023-03-04T11:02:34;12.00;99.90
40756;DHT22;26461;45.630;9.418;2023-03-04T11:05:44;12.00;99.90
40756;DHT22;26461;45.630;9.418;2023-03-04T11:08:58;12.00;99.90
40756;DHT22;26461;45.630;9.418;2023-03-04T11:12:14;12.00;99.90
40756;DHT22;26461;45.630;9.418;2023-03-04T11:15:26;12.00;99.90
40756;DHT22;26461;45.630;9.418;2023-03-04T11:18:43;12.00;99.90
40756;DHT22;26461;45.630;9.418;2023-03-04T11:21:55;12.10;99.90
40756;DHT22;26461;45.630;9.418;2023-03-04T11:25:15;12.10;99.90
40756;DHT22;26461;45.630;9.418;2023-03-04T11:28:48;12.10;99.90
40756;DHT22;26461;45.630;9.418;2023-03-04T11:35:33;12.30;99.90
40756;DHT22;26461;45.630;9.418;2023-03-04T11:38:49;12.30;99.90
40756;DHT22;26461;45.630;9.418;2023-03-04T11:42:21;12.40;99.90
40756;DHT22;26461;45.630;9.418;2023-03-04T11:46:02;12.50;99.90
40756;DHT22;26461;45.630;9.418;2023-03-04T11:49:23;12.50;99.90
40756;DHT22;26461;45.630;9.418;2023-03-04T11:53:03;12.50;99.90
40756;DHT22;26461;45.630;9.418;2023-03-04T11:59:49;12.60;99.90
40756;DHT22;26461;45.630;9.418;2023-03-04T12:06:50;12.70;99.90
40756;DHT22;26461;45.630;9.418;2023-03-04T12:13:41;12.90;99.90
40756;DHT22;26461;45.630;9.418;2023-03-04T12:20:34;13.10;99.90
40756;DHT22;26461;45.630;9.418;2023-03-04T12:31:15;13.30;99.90
40756;DHT22;26461;45.630;9.418;2023-03-04T12:34:52;13.40;99.90
40756;DHT22;26461;45.630;9.418;2023-03-04T12:38:42;13.60;99.90
40756;DHT22;26461;45.630;9.418;2023-03-04T12:59:32;14.10;99.10
40756;DHT22;26461;45.630;9.418;2023-03-04T13:05:56;14.30;99.60
40756;DHT22;26461;45.630;9.418;2023-03-04T13:09:23;14.40;99.40
40756;DHT22;26461;45.630;9.418;2023-03-04T13:12:57;14.60;99.90
40756;DHT22;26461;45.630;9.418;2023-03-04T13:19:43;14.90;98.70
40756;DHT22;26461;45.630;9.418;2023-03-04T13:26:31;15.10;98.00
40756;DHT22;26461;45.630;9.418;2023-03-04T13:29:42;15.10;98.00
40756;DHT22;26461;45.630;9.418;2023-03-04T13:32:52;15.10;98.10
40756;DHT22;26461;45.630;9.418;2023-03-04T13:36:25;15.20;97.70
40756;DHT22;26461;45.630;9.418;2023-03-04T13:39:35;15.30;97.60
40756;DHT22;26461;45.630;9.418;2023-03-04T13:42:46;15.40;97.30
40756;DHT22;26461;45.630;9.418;2023-03-04T13:45:56;15.40;97.30
40756;DHT22;26461;45.630;9.418;2023-03-04T13:49:15;15.60;96.90
40756;DHT22;26461;45.630;9.418;2023-03-04T13:52:40;15.60;96.60
40756;DHT22;26461;45.630;9.418;2023-03-04T13:59:40;15.80;95.90
40756;DHT22;26461;45.630;9.418;2023-03-04T14:02:51;15.90;95.50
40756;DHT22;26461;45.630;9.418;2023-03-04T14:06:29;16.00;95.30
40756;DHT22;26461;45.630;9.418;2023-03-04T14:09:38;16.10;95.00
40756;DHT22;26461;45.630;9.418;2023-03-04T14:12:53;16.10;95.50
40756;DHT22;26461;45.630;9.418;2023-03-04T14:16:04;16.20;95.20
40756;DHT22;26461;45.630;9.418;2023-03-04T14:19:17;16.40;95.00
40756;DHT22;26461;45.630;9.418;2023-03-04T14:22:31;16.40;94.70
40756;DHT22;26461;45.630;9.418;2023-03-04T14:25:42;16.50;94.40
40756;DHT22;26461;45.630;9.418;2023-03-04T14:28:52;16.60;94.70
40756;DHT22;26461;45.630;9.418;2023-03-04T14:32:06;16.60;94.00
40756;DHT22;26461;45.630;9.418;2023-03-04T14:35:29;16.70;94.20
40756;DHT22;26461;45.630;9.418;2023-03-04T14:38:39;16.90;93.70
40756;DHT22;26461;45.630;9.418;2023-03-04T14:41:53;17.00;93.50
40756;DHT22;26461;45.630;9.418;2023-03-04T14:45:03;17.10;93.20
40756;DHT22;26461;45.630;9.418;2023-03-04T14:48:30;17.10;91.80
40756;DHT22;26461;45.630;9.418;2023-03-04T14:51:50;17.10;92.30
40756;DHT22;26461;45.630;9.418;2023-03-04T14:58:36;17.20;92.00
40756;DHT22;26461;45.630;9.418;2023-03-04T15:01:46;17.30;92.00
40756;DHT22;26461;45.630;9.418;2023-03-04T15:04:59;17.40;92.10
40756;DHT22;26461;45.630;9.418;2023-03-04T15:08:29;17.60;92.00
40756;DHT22;26461;45.630;9.418;2023-03-04T15:11:50;17.70;91.60
40756;DHT22;26461;45.630;9.418;2023-03-04T15:15:03;17.80;90.40
40756;DHT22;26461;45.630;9.418;2023-03-04T15:18:27;17.70;90.80
40756;DHT22;26461;45.630;9.418;2023-03-04T15:21:39;17.70;90.80
40756;DHT22;26461;45.630;9.418;2023-03-04T15:24:50;17.80;90.70
40756;DHT22;26461;45.630;9.418;2023-03-04T15:28:01;17.80;88.00
40756;DHT22;26461;45.630;9.418;2023-03-04T15:31:17;17.70;88.70
40756;DHT22;26461;45.630;9.418;2023-03-04T15:34:29;17.70;89.60
40756;DHT22;26461;45.630;9.418;2023-03-04T15:37:41;17.60;89.80
40756;DHT22;26461;45.630;9.418;2023-03-04T15:40:52;17.70;89.20
40756;DHT22;26461;45.630;9.418;2023-03-04T15:44:01;17.70;88.60
40756;DHT22;26461;45.630;9.418;2023-03-04T15:47:11;17.70;88.70
40756;DHT22;26461;45.630;9.418;2023-03-04T15:50:27;17.60;89.10
40756;DHT22;26461;45.630;9.418;2023-03-04T15:53:37;17.70;88.40
40756;DHT22;26461;45.630;9.418;2023-03-04T15:56:50;17.60;88.40
40756;DHT22;26461;45.630;9.418;2023-03-04T16:00:00;17.70;87.90
40756;DHT22;26461;45.630;9.418;2023-03-04T16:03:16;17.60;87.00
40756;DHT22;26461;45.630;9.418;2023-03-04T16:06:29;17.70;87.10
40756;DHT22;26461;45.630;9.418;2023-03-04T16:09:39;17.60;86.70
40756;DHT22;26461;45.630;9.418;2023-03-04T16:12:50;17.60;86.80
40756;DHT22;26461;45.630;9.418;2023-03-04T16:16:00;17.60;86.60
40756;DHT22;26461;45.630;9.418;2023-03-04T16:19:10;17.50;85.90
40756;DHT22;26461;45.630;9.418;2023-03-04T16:22:29;17.40;86.50
40756;DHT22;26461;45.630;9.418;2023-03-04T16:25:42;17.40;86.70
40756;DHT22;26461;45.630;9.418;2023-03-04T16:28:53;17.40;86.10
40756;DHT22;26461;45.630;9.418;2023-03-04T16:32:02;17.40;85.80
40756;DHT22;26461;45.630;9.418;2023-03-04T16:35:13;17.30;85.70
40756;DHT22;26461;45.630;9.418;2023-03-04T16:38:26;17.20;85.50
40756;DHT22;26461;45.630;9.418;2023-03-04T16:41:36;17.10;85.70
40756;DHT22;26461;45.630;9.418;2023-03-04T16:44:47;16.90;85.80
40756;DHT22;26461;45.630;9.418;2023-03-04T16:47:57;16.80;86.30
40756;DHT22;26461;45.630;9.418;2023-03-04T16:51:13;16.70;86.70
40756;DHT22;26461;45.630;9.418;2023-03-04T16:54:27;16.50;86.80
40756;DHT22;26461;45.630;9.418;2023-03-04T16:57:39;16.40;87.20
40756;DHT22;26461;45.630;9.418;2023-03-04T17:00:48;16.20;87.70
40756;DHT22;26461;45.630;9.418;2023-03-04T17:03:58;16.10;88.20
40756;DHT22;26461;45.630;9.418;2023-03-04T17:07:08;16.00;88.60
40756;DHT22;26461;45.630;9.418;2023-03-04T17:10:18;15.80;89.00
40756;DHT22;26461;45.630;9.418;2023-03-04T17:13:28;15.60;89.60
40756;DHT22;26461;45.630;9.418;2023-03-04T17:16:38;15.40;90.00
40756;DHT22;26461;45.630;9.418;2023-03-04T17:19:48;15.20;90.60
40756;DHT22;26461;45.630;9.418;2023-03-04T17:22:58;15.10;90.60
40756;DHT22;26461;45.630;9.418;2023-03-04T17:26:08;14.90;90.90
40756;DHT22;26461;45.630;9.418;2023-03-04T17:29:19;14.80;91.20
40756;DHT22;26461;45.630;9.418;2023-03-04T17:32:29;14.60;91.30
40756;DHT22;26461;45.630;9.418;2023-03-04T17:35:40;14.50;91.50
40756;DHT22;26461;45.630;9.418;2023-03-04T17:38:50;14.40;91.70
40756;DHT22;26461;45.630;9.418;2023-03-04T17:42:00;14.30;92.00
40756;DHT22;26461;45.630;9.418;2023-03-04T17:45:10;14.20;92.60
40756;DHT22;26461;45.630;9.418;2023-03-04T17:48:20;14.20;92.40
40756;DHT22;26461;45.630;9.418;2023-03-04T17:51:35;14.10;92.50
40756;DHT22;26461;45.630;9.418;2023-03-04T17:54:46;14.00;92.60
40756;DHT22;26461;45.630;9.418;2023-03-04T17:57:55;14.00;92.80
40756;DHT22;26461;45.630;9.418;2023-03-04T18:01:18;13.90;93.10
40756;DHT22;26461;45.630;9.418;2023-03-04T18:04:28;13.80;93.40
40756;DHT22;26461;45.630;9.418;2023-03-04T18:07:38;13.70;93.40
40756;DHT22;26461;45.630;9.418;2023-03-04T18:10:48;13.70;93.50
40756;DHT22;26461;45.630;9.418;2023-03-04T18:13:58;13.60;93.60
40756;DHT22;26461;45.630;9.418;2023-03-04T18:17:07;13.60;93.90
40756;DHT22;26461;45.630;9.418;2023-03-04T18:20:18;13.50;94.30
40756;DHT22;26461;45.630;9.418;2023-03-04T18:23:28;13.40;94.60
40756;DHT22;26461;45.630;9.418;2023-03-04T18:26:38;13.30;94.80
40756;DHT22;26461;45.630;9.418;2023-03-04T18:29:48;13.30;94.90
40756;DHT22;26461;45.630;9.418;2023-03-04T18:32:58;13.10;95.10
40756;DHT22;26461;45.630;9.418;2023-03-04T18:36:13;13.00;95.20
40756;DHT22;26461;45.630;9.418;2023-03-04T18:39:23;13.10;95.50
40756;DHT22;26461;45.630;9.418;2023-03-04T18:42:33;13.00;95.60
40756;DHT22;26461;45.630;9.418;2023-03-04T18:45:43;12.90;95.90
40756;DHT22;26461;45.630;9.418;2023-03-04T18:48:59;12.90;96.00
40756;DHT22;26461;45.630;9.418;2023-03-04T18:52:09;12.80;96.10
40756;DHT22;26461;45.630;9.418;2023-03-04T18:55:21;12.70;96.30
40756;DHT22;26461;45.630;9.418;2023-03-04T18:58:33;12.60;96.20
40756;DHT22;26461;45.630;9.418;2023-03-04T19:01:44;12.60;96.30
40756;DHT22;26461;45.630;9.418;2023-03-04T19:04:57;12.50;96.60
40756;DHT22;26461;45.630;9.418;2023-03-04T19:08:09;12.50;96.80
40756;DHT22;26461;45.630;9.418;2023-03-04T19:11:19;12.40;96.90
40756;DHT22;26461;45.630;9.418;2023-03-04T19:14:30;12.40;97.20
40756;DHT22;26461;45.630;9.418;2023-03-04T19:17:40;12.30;97.50
40756;DHT22;26461;45.630;9.418;2023-03-04T19:20:49;12.30;97.70
40756;DHT22;26461;45.630;9.418;2023-03-04T19:23:59;12.20;97.70
40756;DHT22;26461;45.630;9.418;2023-03-04T19:27:09;12.10;97.60
40756;DHT22;26461;45.630;9.418;2023-03-04T19:30:19;12.10;97.80
40756;DHT22;26461;45.630;9.418;2023-03-04T19:33:28;12.10;97.90
40756;DHT22;26461;45.630;9.418;2023-03-04T19:36:38;12.00;98.00
40756;DHT22;26461;45.630;9.418;2023-03-04T19:39:48;12.00;98.10
40756;DHT22;26461;45.630;9.418;2023-03-04T19:42:59;12.00;98.10
40756;DHT22;26461;45.630;9.418;2023-03-04T19:46:09;12.00;98.20
40756;DHT22;26461;45.630;9.418;2023-03-04T19:49:19;11.90;98.20
40756;DHT22;26461;45.630;9.418;2023-03-04T19:52:29;11.80;98.40
40756;DHT22;26461;45.630;9.418;2023-03-04T19:55:39;11.80;98.50
40756;DHT22;26461;45.630;9.418;2023-03-04T19:58:52;11.70;98.50
40756;DHT22;26461;45.630;9.418;2023-03-04T20:02:02;11.70;98.60
40756;DHT22;26461;45.630;9.418;2023-03-04T20:05:12;11.70;98.70
40756;DHT22;26461;45.630;9.418;2023-03-04T20:08:22;11.60;98.70
40756;DHT22;26461;45.630;9.418;2023-03-04T20:11:32;11.60;98.70
40756;DHT22;26461;45.630;9.418;2023-03-04T20:14:42;11.60;98.80
40756;DHT22;26461;45.630;9.418;2023-03-04T20:17:52;11.50;98.80
40756;DHT22;26461;45.630;9.418;2023-03-04T20:21:03;11.50;98.80
40756;DHT22;26461;45.630;9.418;2023-03-04T20:24:13;11.50;99.00
40756;DHT22;26461;45.630;9.418;2023-03-04T20:27:23;11.50;99.00
40756;DHT22;26461;45.630;9.418;2023-03-04T20:30:32;11.40;99.00
40756;DHT22;26461;45.630;9.418;2023-03-04T20:33:43;11.40;99.10
40756;DHT22;26461;45.630;9.418;2023-03-04T20:36:53;11.40;99.10
40756;DHT22;26461;45.630;9.418;2023-03-04T20:40:04;11.40;99.10
40756;DHT22;26461;45.630;9.418;2023-03-04T20:43:14;11.30;99.20
40756;DHT22;26461;45.630;9.418;2023-03-04T20:49:40;11.30;99.50
40756;DHT22;26461;45.630;9.418;2023-03-04T20:52:50;11.20;99.50
40756;DHT22;26461;45.630;9.418;2023-03-04T20:56:03;11.20;99.60
40756;DHT22;26461;45.630;9.418;2023-03-04T20:59:13;11.20;99.70
40756;DHT22;26461;45.630;9.418;2023-03-04T21:02:18;11.10;99.80
40756;DHT22;26461;45.630;9.418;2023-03-04T21:05:29;11.10;99.90
40756;DHT22;26461;45.630;9.418;2023-03-04T21:08:40;11.00;99.90
40756;DHT22;26461;45.630;9.418;2023-03-04T21:11:50;11.00;99.90
40756;DHT22;26461;45.630;9.418;2023-03-04T21:15:00;10.90;99.90
40756;DHT22;26461;45.630;9.418;2023-03-04T21:18:10;10.80;99.90
40756;DHT22;26461;45.630;9.418;2023-03-04T21:21:25;10.80;99.90
40756;DHT22;26461;45.630;9.418;2023-03-04T21:24:35;10.80;99.90
40756;DHT22;26461;45.630;9.418;2023-03-04T21:27:45;10.80;99.90
40756;DHT22;26461;45.630;9.418;2023-03-04T21:30:55;10.70;99.90
40756;DHT22;26461;45.630;9.418;2023-03-04T21:34:16;10.70;99.90
40756;DHT22;26461;45.630;9.418;2023-03-04T21:37:23;10.70;99.90
40756;DHT22;26461;45.630;9.418;2023-03-04T21:40:33;10.70;99.90